Time;durP1;ratioP1;P1;durP2;ratioP2;P2;SDS_P1;SDS_P2;PMS_P1;PMS_P2;Temp;Humidity;BMP_temperature;BMP_pressure;BME280_temperature;BME280_humidity;BME280_pressure;Samples;Min_cycle;Max_cycle;Signal;HPM_P1;HPM_P2
2023/08/14 00:01:16;;;;;;;7.72;2.22;;;;;;;;;;5049617;28;20017;-70
2023/08/14 00:03:42;;;;;;;7.57;1.60;;;;;;;;;;5031914;28;20469;-71
2023/08/14 00:06:08;;;;;;;5.45;1.30;;;;;;;;;;5049847;28;20025;-71
2023/08/14 00:08:34;;;;;;;11.85;2.30;;;;;;;;;;5049366;28;20042;-70
2023/08/14 00:11:00;;;;;;;9.88;2.22;;;;;;;;;;5049409;28;20466;-70
2023/08/14 00:13:26;;;;;;;8.18;1.98;;;;;;;;;;5049222;28;20052;-71
2023/08/14 00:15:53;;;;;;;7.72;1.58;;;;;;;;;;5049572;28;20029;-70
2023/08/14 00:18:19;;;;;;;11.23;2.85;;;;;;;;;;5049256;28;20025;-71
2023/08/14 00:20:45;;;;;;;9.15;2.15;;;;;;;;;;5049758;28;20028;-70
2023/08/14 00:23:11;;;;;;;6.78;1.70;;;;;;;;;;5049427;28;20043;-70
2023/08/14 00:25:37;;;;;;;8.80;2.22;;;;;;;;;;5049640;28;20029;-70
2023/08/14 00:28:03;;;;;;;8.23;2.03;;;;;;;;;;5051283;28;20036;-70
2023/08/14 00:30:29;;;;;;;11.10;1.83;;;;;;;;;;5051299;28;20052;-70
2023/08/14 00:32:55;;;;;;;20.35;2.40;;;;;;;;;;5050294;28;20029;-70
2023/08/14 00:35:21;;;;;;;8.13;2.03;;;;;;;;;;5050791;28;20079;-70
2023/08/14 00:37:48;;;;;;;8.30;1.60;;;;;;;;;;5051100;28;20116;-70
2023/08/14 00:40:15;;;;;;;10.65;1.73;;;;;;;;;;5050634;28;20029;-70
2023/08/14 00:42:42;;;;;;;9.82;2.70;;;;;;;;;;5049574;28;20603;-71
2023/08/14 00:45:09;;;;;;;8.48;1.98;;;;;;;;;;5050382;28;20537;-71
2023/08/14 00:47:35;;;;;;;16.08;2.67;;;;;;;;;;5050464;28;20029;-71
2023/08/14 00:50:03;;;;;;;6.80;2.15;;;;;;;;;;5050318;28;20032;-71
2023/08/14 00:52:31;;;;;;;8.55;1.75;;;;;;;;;;5050387;28;20119;-71
2023/08/14 00:54:58;;;;;;;10.95;2.40;;;;;;;;;;5049356;28;20033;-70
2023/08/14 00:57:24;;;;;;;9.27;1.83;;;;;;;;;;5050268;28;20590;-71
2023/08/14 00:59:50;;;;;;;9.73;2.13;;;;;;;;;;5050187;28;20414;-71
2023/08/14 01:02:16;;;;;;;11.30;2.00;;;;;;;;;;5049994;28;20845;-71
2023/08/14 01:04:42;;;;;;;9.80;2.05;;;;;;;;;;5049606;28;20031;-71
2023/08/14 01:07:08;;;;;;;8.55;2.33;;;;;;;;;;5049595;28;20033;-71
2023/08/14 01:09:34;;;;;;;9.38;1.50;;;;;;;;;;5049961;28;20017;-71
2023/08/14 01:12:06;;;;;;;6.45;1.50;;;;;;;;;;5049660;28;20032;-71
2023/08/14 01:14:33;;;;;;;8.00;2.28;;;;;;;;;;5048872;28;20082;-71
2023/08/14 01:17:04;;;;;;;7.03;2.20;;;;;;;;;;5049222;28;20087;-71
2023/08/14 01:19:32;;;;;;;6.85;1.98;;;;;;;;;;5049793;28;20036;-71
2023/08/14 01:21:58;;;;;;;9.18;1.90;;;;;;;;;;5049571;28;20068;-71
2023/08/14 01:24:33;;;;;;;8.25;1.80;;;;;;;;;;5050805;28;20025;-71
2023/08/14 01:27:00;;;;;;;8.50;1.85;;;;;;;;;;5053512;28;20025;-71
2023/08/14 01:29:26;;;;;;;6.80;2.00;;;;;;;;;;5053553;28;20471;-71
2023/08/14 01:31:52;;;;;;;7.88;2.28;;;;;;;;;;5052974;28;20036;-71
2023/08/14 01:34:18;;;;;;;9.05;1.50;;;;;;;;;;5053566;28;20029;-71
2023/08/14 01:36:53;;;;;;;5.55;1.55;;;;;;;;;;5053274;28;20024;-71
2023/08/14 01:39:22;;;;;;;7.28;1.98;;;;;;;;;;5035577;28;20083;-70
2023/08/14 01:41:48;;;;;;;7.45;1.98;;;;;;;;;;5053201;28;20515;-70
2023/08/14 01:44:17;;;;;;;6.65;1.88;;;;;;;;;;5053065;28;20021;-70
2023/08/14 01:46:45;;;;;;;7.47;1.88;;;;;;;;;;5053343;28;20120;-70
2023/08/14 01:49:12;;;;;;;10.40;2.25;;;;;;;;;;5035763;28;20477;-70
2023/08/14 01:51:39;;;;;;;5.93;1.85;;;;;;;;;;5053357;28;20545;-70
2023/08/14 01:54:05;;;;;;;6.88;1.80;;;;;;;;;;5052719;28;20115;-71
2023/08/14 01:56:31;;;;;;;10.07;1.92;;;;;;;;;;5052962;28;20029;-70
2023/08/14 01:58:57;;;;;;;4.82;1.80;;;;;;;;;;5053090;28;20025;-71
2023/08/14 02:01:23;;;;;;;7.15;1.73;;;;;;;;;;5053129;28;20143;-71
2023/08/14 02:03:49;;;;;;;8.50;2.20;;;;;;;;;;5053024;28;20065;-71
2023/08/14 02:06:15;;;;;;;8.75;2.08;;;;;;;;;;5052292;28;20028;-71
2023/08/14 02:08:42;;;;;;;6.55;2.00;;;;;;;;;;5052776;28;20025;-71
2023/08/14 02:11:08;;;;;;;6.65;1.73;;;;;;;;;;5052779;28;20025;-71
2023/08/14 02:13:34;;;;;;;6.05;1.80;;;;;;;;;;5052743;28;20017;-71
2023/08/14 02:16:00;;;;;;;6.55;1.90;;;;;;;;;;5052615;28;20156;-71
2023/08/14 02:18:26;;;;;;;8.70;2.22;;;;;;;;;;5052698;28;20025;-71
2023/08/14 02:20:53;;;;;;;5.47;1.40;;;;;;;;;;5052536;28;20020;-71
2023/08/14 02:23:19;;;;;;;7.43;1.67;;;;;;;;;;5052404;28;20498;-71
2023/08/14 02:25:45;;;;;;;6.45;2.45;;;;;;;;;;5052750;28;20135;-71
2023/08/14 02:28:12;;;;;;;6.88;1.83;;;;;;;;;;5052666;28;20040;-71
2023/08/14 02:30:41;;;;;;;10.75;2.15;;;;;;;;;;5052138;28;20028;-71
2023/08/14 02:33:07;;;;;;;4.63;1.25;;;;;;;;;;5052476;28;20392;-71
2023/08/14 02:35:34;;;;;;;3.78;1.33;;;;;;;;;;5052202;28;20017;-71
2023/08/14 02:38:01;;;;;;;6.68;1.80;;;;;;;;;;5052012;28;20028;-71
2023/08/14 02:40:27;;;;;;;4.63;1.85;;;;;;;;;;5052348;28;20498;-71
2023/08/14 02:43:00;;;;;;;6.40;1.83;;;;;;;;;;5052017;28;20550;-70
2023/08/14 02:45:26;;;;;;;6.25;1.83;;;;;;;;;;5052037;28;20032;-70
2023/08/14 02:47:52;;;;;;;8.50;1.80;;;;;;;;;;5052079;28;20025;-71
2023/08/14 02:50:18;;;;;;;3.70;1.55;;;;;;;;;;5052052;28;20028;-71
2023/08/14 02:52:44;;;;;;;5.13;2.17;;;;;;;;;;5051868;28;20029;-72
2023/08/14 02:55:10;;;;;;;6.00;1.70;;;;;;;;;;5052102;28;20029;-70
2023/08/14 02:57:36;;;;;;;4.93;1.95;;;;;;;;;;5052209;28;20422;-70
2023/08/14 03:00:04;;;;;;;4.28;1.55;;;;;;;;;;5051407;28;20029;-71
2023/08/14 03:02:30;;;;;;;5.68;2.15;;;;;;;;;;5051792;28;20675;-70
2023/08/14 03:04:56;;;;;;;3.33;1.40;;;;;;;;;;5051364;28;20064;-71
2023/08/14 03:07:22;;;;;;;6.32;1.95;;;;;;;;;;5051624;28;20376;-71
2023/08/14 03:09:48;;;;;;;5.35;1.50;;;;;;;;;;5051429;28;20025;-71
2023/08/14 03:12:14;;;;;;;4.32;1.73;;;;;;;;;;5051397;28;20029;-71
2023/08/14 03:14:40;;;;;;;11.07;1.80;;;;;;;;;;5051687;28;20487;-71
2023/08/14 03:17:06;;;;;;;7.20;2.38;;;;;;;;;;5051679;28;20025;-71
2023/08/14 03:19:32;;;;;;;5.53;1.70;;;;;;;;;;5051611;28;20025;-71
2023/08/14 03:21:58;;;;;;;7.88;1.92;;;;;;;;;;5050713;28;20028;-71
2023/08/14 03:24:24;;;;;;;6.00;1.70;;;;;;;;;;5051679;28;20028;-71
2023/08/14 03:26:50;;;;;;;4.63;1.55;;;;;;;;;;5051454;28;20024;-71
2023/08/14 03:29:16;;;;;;;8.85;1.98;;;;;;;;;;5051259;28;20430;-71
2023/08/14 03:31:42;;;;;;;5.53;1.67;;;;;;;;;;5051322;28;20064;-70
2023/08/14 03:34:09;;;;;;;6.38;1.75;;;;;;;;;;5050874;28;20114;-70
2023/08/14 03:36:35;;;;;;;5.40;2.00;;;;;;;;;;5051391;28;20029;-71
2023/08/14 03:39:01;;;;;;;8.55;2.78;;;;;;;;;;5050667;28;20036;-71
2023/08/14 03:41:27;;;;;;;4.35;1.67;;;;;;;;;;5033649;28;21281;-71
2023/08/14 03:43:53;;;;;;;4.97;1.85;;;;;;;;;;5050994;28;20402;-71
2023/08/14 03:46:19;;;;;;;7.78;1.65;;;;;;;;;;5050799;28;20033;-71
2023/08/14 03:48:45;;;;;;;7.55;2.17;;;;;;;;;;5051323;28;20017;-71
2023/08/14 03:51:11;;;;;;;11.88;2.00;;;;;;;;;;5051542;28;20027;-70
2023/08/14 03:53:37;;;;;;;8.35;2.03;;;;;;;;;;5051974;28;20025;-70
2023/08/14 03:56:03;;;;;;;5.63;1.77;;;;;;;;;;5050895;28;20569;-70
2023/08/14 03:58:30;;;;;;;7.32;2.03;;;;;;;;;;5050648;28;20024;-70
2023/08/14 04:00:56;;;;;;;7.18;2.28;;;;;;;;;;5051119;28;20024;-70
2023/08/14 04:03:23;;;;;;;3.67;1.30;;;;;;;;;;5050698;28;20044;-69
2023/08/14 04:05:52;;;;;;;6.75;1.88;;;;;;;;;;5050998;28;20546;-69
2023/08/14 04:08:18;;;;;;;4.57;1.60;;;;;;;;;;5050860;28;20490;-69
2023/08/14 04:10:45;;;;;;;5.28;2.03;;;;;;;;;;5050728;28;20052;-70
2023/08/14 04:13:11;;;;;;;6.78;1.60;;;;;;;;;;5050330;28;20055;-69
2023/08/14 04:15:37;;;;;;;4.43;1.50;;;;;;;;;;5050672;28;20021;-69
2023/08/14 04:18:03;;;;;;;6.05;1.52;;;;;;;;;;5050807;28;20032;-70
2023/08/14 04:20:29;;;;;;;4.47;1.48;;;;;;;;;;5050556;28;20025;-70
2023/08/14 04:22:55;;;;;;;3.17;1.52;;;;;;;;;;5050326;28;20393;-70
2023/08/14 04:25:21;;;;;;;6.53;1.77;;;;;;;;;;5049825;28;20033;-69
2023/08/14 04:27:47;;;;;;;3.83;1.30;;;;;;;;;;5050533;28;20032;-69
2023/08/14 04:30:13;;;;;;;4.90;1.88;;;;;;;;;;5050142;28;20494;-69
2023/08/14 04:32:40;;;;;;;5.07;1.55;;;;;;;;;;5049715;28;20383;-69
2023/08/14 04:35:08;;;;;;;6.03;1.67;;;;;;;;;;5050602;28;20029;-69
2023/08/14 04:37:34;;;;;;;5.93;1.73;;;;;;;;;;5050372;28;20037;-70
2023/08/14 04:40:00;;;;;;;6.25;1.90;;;;;;;;;;5050207;28;20021;-70
2023/08/14 04:42:26;;;;;;;6.78;2.10;;;;;;;;;;5049605;28;20049;-69
2023/08/14 04:44:52;;;;;;;10.13;2.10;;;;;;;;;;5050174;28;20052;-70
2023/08/14 04:47:18;;;;;;;8.57;1.98;;;;;;;;;;5050281;28;20175;-71
2023/08/14 04:49:44;;;;;;;5.80;1.67;;;;;;;;;;5050347;28;20028;-71
2023/08/14 04:52:10;;;;;;;5.50;1.75;;;;;;;;;;5049827;28;20483;-70
2023/08/14 04:54:36;;;;;;;11.32;1.90;;;;;;;;;;5031980;28;20075;-70
2023/08/14 04:57:02;;;;;;;15.30;2.72;;;;;;;;;;5032000;28;20036;-70
2023/08/14 04:59:29;;;;;;;7.03;1.85;;;;;;;;;;5053444;28;20028;-70
2023/08/14 05:01:55;;;;;;;11.57;2.55;;;;;;;;;;5053907;28;20552;-70
2023/08/14 05:04:21;;;;;;;11.07;2.75;;;;;;;;;;5053420;28;20375;-72
2023/08/14 05:06:47;;;;;;;7.82;2.10;;;;;;;;;;5054133;28;20036;-72
2023/08/14 05:09:13;;;;;;;7.68;2.00;;;;;;;;;;5053595;28;20021;-70
2023/08/14 05:11:39;;;;;;;12.60;2.42;;;;;;;;;;5053962;28;20025;-69
2023/08/14 05:14:05;;;;;;;7.32;1.63;;;;;;;;;;5035786;28;20119;-69
2023/08/14 05:16:32;;;;;;;8.95;1.85;;;;;;;;;;5053407;28;20104;-68
2023/08/14 05:18:58;;;;;;;6.75;1.55;;;;;;;;;;5052211;28;20025;-70
2023/08/14 05:21:24;;;;;;;13.38;2.80;;;;;;;;;;5052108;28;20029;-70
2023/08/14 05:23:50;;;;;;;9.10;2.35;;;;;;;;;;5052691;28;20032;-69
2023/08/14 05:26:16;;;;;;;9.85;2.17;;;;;;;;;;5052952;28;20066;-70
2023/08/14 05:28:42;;;;;;;13.98;2.17;;;;;;;;;;5052895;28;20052;-69
2023/08/14 05:31:08;;;;;;;10.25;1.92;;;;;;;;;;5052910;28;20367;-69
2023/08/14 05:33:34;;;;;;;10.50;2.30;;;;;;;;;;5053381;28;20057;-69
2023/08/14 05:36:00;;;;;;;10.93;2.15;;;;;;;;;;5052703;28;20061;-69
2023/08/14 05:38:26;;;;;;;12.85;2.28;;;;;;;;;;5053436;28;20036;-69
2023/08/14 05:40:52;;;;;;;16.13;2.58;;;;;;;;;;5052004;28;20025;-69
2023/08/14 05:43:18;;;;;;;14.00;2.85;;;;;;;;;;5052557;28;20053;-70
2023/08/14 05:45:45;;;;;;;14.63;3.67;;;;;;;;;;5052354;28;20025;-69
2023/08/14 05:48:12;;;;;;;17.08;3.42;;;;;;;;;;5051634;28;20063;-70
2023/08/14 05:50:38;;;;;;;11.20;2.60;;;;;;;;;;5033752;28;20663;-69
2023/08/14 05:53:05;;;;;;;11.57;2.28;;;;;;;;;;5051907;28;20025;-71
2023/08/14 05:55:40;;;;;;;13.95;2.75;;;;;;;;;;5052168;28;20036;-70
2023/08/14 05:58:06;;;;;;;16.05;3.60;;;;;;;;;;5034368;28;20854;-69
2023/08/14 06:00:33;;;;;;;19.77;3.97;;;;;;;;;;5048450;28;20033;-69
2023/08/14 06:02:59;;;;;;;8.63;2.35;;;;;;;;;;5051764;28;20041;-68
2023/08/14 06:05:25;;;;;;;18.00;3.90;;;;;;;;;;5051603;28;20392;-69
2023/08/14 06:07:52;;;;;;;10.10;2.47;;;;;;;;;;5051671;28;20038;-69
2023/08/14 06:10:18;;;;;;;15.55;2.97;;;;;;;;;;5051008;28;20064;-68
2023/08/14 06:12:45;;;;;;;17.77;3.08;;;;;;;;;;5051706;28;20032;-68
2023/08/14 06:15:11;;;;;;;13.18;3.28;;;;;;;;;;5051066;28;20082;-67
2023/08/14 06:17:38;;;;;;;10.85;2.55;;;;;;;;;;5051809;28;20060;-68
2023/08/14 06:20:04;;;;;;;14.68;2.42;;;;;;;;;;5052010;28;20029;-68
2023/08/14 06:22:31;;;;;;;8.93;2.10;;;;;;;;;;5051742;28;20029;-68
2023/08/14 06:24:57;;;;;;;10.23;2.60;;;;;;;;;;5050307;28;20025;-68
2023/08/14 06:27:23;;;;;;;7.28;2.00;;;;;;;;;;5049600;28;20036;-68
2023/08/14 06:29:49;;;;;;;11.23;2.45;;;;;;;;;;5049507;28;20033;-68
2023/08/14 06:32:15;;;;;;;11.32;2.45;;;;;;;;;;5049308;28;20322;-68
2023/08/14 06:34:41;;;;;;;9.82;2.05;;;;;;;;;;5049195;28;20027;-68
2023/08/14 06:37:08;;;;;;;9.10;2.28;;;;;;;;;;5049358;28;20029;-68
2023/08/14 06:39:34;;;;;;;12.63;2.63;;;;;;;;;;5049782;28;20040;-68
2023/08/14 06:42:00;;;;;;;9.07;3.00;;;;;;;;;;5050828;28;20120;-68
2023/08/14 06:44:28;;;;;;;8.00;2.92;;;;;;;;;;5050831;28;20028;-67
2023/08/14 06:46:54;;;;;;;9.07;2.47;;;;;;;;;;5050632;28;20025;-67
2023/08/14 06:49:20;;;;;;;11.13;2.60;;;;;;;;;;5050440;28;20021;-68
2023/08/14 06:51:46;;;;;;;8.27;2.47;;;;;;;;;;5050978;28;20697;-67
2023/08/14 06:54:12;;;;;;;9.00;2.90;;;;;;;;;;5032293;28;20387;-67
2023/08/14 06:56:39;;;;;;;8.98;2.75;;;;;;;;;;5050270;28;20427;-67
2023/08/14 06:59:05;;;;;;;9.82;3.50;;;;;;;;;;5050730;28;20021;-67
2023/08/14 07:01:34;;;;;;;8.15;2.05;;;;;;;;;;5050923;28;20035;-67
2023/08/14 07:04:00;;;;;;;7.28;2.53;;;;;;;;;;5050494;28;20064;-67
2023/08/14 07:06:26;;;;;;;9.75;3.30;;;;;;;;;;5050479;28;20420;-67
2023/08/14 07:08:52;;;;;;;6.35;2.85;;;;;;;;;;5050099;28;20099;-67
2023/08/14 07:11:18;;;;;;;6.78;2.75;;;;;;;;;;5050244;28;20078;-67
2023/08/14 07:13:44;;;;;;;7.43;2.60;;;;;;;;;;5050945;28;20426;-67
2023/08/14 07:16:10;;;;;;;6.25;2.35;;;;;;;;;;5050725;28;20009;-67
2023/08/14 07:18:36;;;;;;;7.45;2.22;;;;;;;;;;5049988;28;20135;-67
2023/08/14 07:21:02;;;;;;;7.97;2.17;;;;;;;;;;5049329;28;20033;-67
2023/08/14 07:23:28;;;;;;;7.82;2.20;;;;;;;;;;5050132;28;20033;-67
2023/08/14 07:25:57;;;;;;;7.07;2.10;;;;;;;;;;5050219;28;20036;-67
2023/08/14 07:28:24;;;;;;;12.55;3.50;;;;;;;;;;5049995;28;20070;-67
2023/08/14 07:30:50;;;;;;;10.73;5.38;;;;;;;;;;5032060;28;20471;-67
2023/08/14 07:33:16;;;;;;;19.45;5.50;;;;;;;;;;5049855;28;20036;-68
2023/08/14 07:35:42;;;;;;;12.93;4.55;;;;;;;;;;5050308;28;20025;-67
2023/08/14 07:38:08;;;;;;;12.18;4.90;;;;;;;;;;5049807;28;20037;-67
2023/08/14 07:40:34;;;;;;;11.27;4.40;;;;;;;;;;5050495;28;20116;-67
2023/08/14 07:43:00;;;;;;;12.00;5.20;;;;;;;;;;5031480;28;20099;-67
2023/08/14 07:45:26;;;;;;;10.20;4.93;;;;;;;;;;5049975;28;20025;-68
2023/08/14 07:47:52;;;;;;;12.48;4.57;;;;;;;;;;5049741;28;20387;-68
2023/08/14 07:50:19;;;;;;;10.88;3.97;;;;;;;;;;5049824;28;20367;-67
2023/08/14 07:52:45;;;;;;;10.00;4.63;;;;;;;;;;5047683;28;20025;-67
2023/08/14 07:55:11;;;;;;;11.00;4.07;;;;;;;;;;5048410;28;20044;-67
2023/08/14 07:57:37;;;;;;;12.32;4.45;;;;;;;;;;5048866;28;20025;-68
2023/08/14 08:00:07;;;;;;;10.43;3.78;;;;;;;;;;5048220;28;20032;-68
2023/08/14 08:02:33;;;;;;;9.50;3.60;;;;;;;;;;5048019;28;20029;-68
2023/08/14 08:04:59;;;;;;;9.10;3.30;;;;;;;;;;5047893;28;20036;-67
2023/08/14 08:07:25;;;;;;;11.88;4.03;;;;;;;;;;5047495;28;20045;-67
2023/08/14 08:09:51;;;;;;;10.48;3.30;;;;;;;;;;5047517;28;20467;-67
2023/08/14 08:12:17;;;;;;;13.48;3.78;;;;;;;;;;5047464;28;20075;-67
2023/08/14 08:14:43;;;;;;;9.52;3.47;;;;;;;;;;5047530;28;20029;-67
2023/08/14 08:17:09;;;;;;;9.82;2.80;;;;;;;;;;5047447;28;20021;-68
2023/08/14 08:19:35;;;;;;;6.93;3.85;;;;;;;;;;5047150;28;20025;-68
2023/08/14 08:22:01;;;;;;;8.65;2.70;;;;;;;;;;5047771;28;20029;-67
2023/08/14 08:24:27;;;;;;;8.10;3.40;;;;;;;;;;5048985;28;20463;-67
2023/08/14 08:26:53;;;;;;;9.10;3.53;;;;;;;;;;5049023;28;20057;-67
2023/08/14 08:29:19;;;;;;;9.48;3.08;;;;;;;;;;5048882;28;20071;-67
2023/08/14 08:31:45;;;;;;;13.43;3.50;;;;;;;;;;5048597;28;20527;-68
2023/08/14 08:34:11;;;;;;;13.43;3.35;;;;;;;;;;5048668;28;20104;-68
2023/08/14 08:36:37;;;;;;;10.43;3.22;;;;;;;;;;5031231;28;20094;-67
2023/08/14 08:39:04;;;;;;;10.82;3.53;;;;;;;;;;5049318;28;20032;-67
2023/08/14 08:41:34;;;;;;;10.07;3.55;;;;;;;;;;5048954;28;20078;-68
2023/08/14 08:44:04;;;;;;;11.85;3.85;;;;;;;;;;5048843;28;20148;-68
2023/08/14 08:46:31;;;;;;;9.88;3.08;;;;;;;;;;5049403;28;20033;-68
2023/08/14 08:48:58;;;;;;;8.52;3.08;;;;;;;;;;5049530;28;20025;-68
2023/08/14 08:51:24;;;;;;;12.55;4.25;;;;;;;;;;5048371;28;20492;-68
2023/08/14 08:53:50;;;;;;;9.45;3.72;;;;;;;;;;5049093;28;20434;-68
2023/08/14 08:56:16;;;;;;;9.18;3.28;;;;;;;;;;5049133;28;20118;-68
2023/08/14 08:58:43;;;;;;;11.68;3.90;;;;;;;;;;5048772;28;20071;-68
2023/08/14 09:01:09;;;;;;;7.35;3.72;;;;;;;;;;5048798;28;20036;-67
2023/08/14 09:03:35;;;;;;;9.85;3.80;;;;;;;;;;5049203;28;20515;-68
2023/08/14 09:06:01;;;;;;;9.27;3.20;;;;;;;;;;5048559;28;20025;-67
2023/08/14 09:08:28;;;;;;;11.27;3.60;;;;;;;;;;5049066;28;20025;-68
2023/08/14 09:10:54;;;;;;;13.73;4.43;;;;;;;;;;5049543;28;20036;-68
2023/08/14 09:13:20;;;;;;;11.27;3.55;;;;;;;;;;5048814;28;20047;-69
2023/08/14 09:15:46;;;;;;;11.32;4.10;;;;;;;;;;5048516;28;20033;-69
2023/08/14 09:18:12;;;;;;;9.93;3.58;;;;;;;;;;5049128;28;20534;-68
2023/08/14 09:20:39;;;;;;;9.10;2.90;;;;;;;;;;5048760;28;20100;-68
2023/08/14 09:23:10;;;;;;;9.35;3.50;;;;;;;;;;5047999;28;20136;-68
2023/08/14 09:25:36;;;;;;;9.85;3.63;;;;;;;;;;5048489;28;20036;-68
2023/08/14 09:28:02;;;;;;;11.18;4.15;;;;;;;;;;5048584;28;20478;-69
2023/08/14 09:30:29;;;;;;;10.63;3.55;;;;;;;;;;5048476;28;20065;-69
2023/08/14 09:32:55;;;;;;;12.00;3.80;;;;;;;;;;5048926;28;20082;-69
2023/08/14 09:35:21;;;;;;;13.10;3.53;;;;;;;;;;5048953;28;20032;-69
2023/08/14 09:37:48;;;;;;;13.57;3.20;;;;;;;;;;5048351;28;20024;-68
2023/08/14 09:40:16;;;;;;;10.20;3.90;;;;;;;;;;5049065;28;20033;-72
2023/08/14 09:42:43;;;;;;;15.95;4.00;;;;;;;;;;5048814;28;20053;-73
2023/08/14 09:45:09;;;;;;;9.43;3.00;;;;;;;;;;5049614;28;20036;-70
2023/08/14 09:47:35;;;;;;;9.48;3.88;;;;;;;;;;5052664;28;20025;-70
2023/08/14 09:50:02;;;;;;;16.90;4.63;;;;;;;;;;5051928;28;20025;-69
2023/08/14 09:52:29;;;;;;;13.68;3.85;;;;;;;;;;5052086;28;20036;-69
2023/08/14 09:54:55;;;;;;;13.48;4.03;;;;;;;;;;5052033;28;20112;-69
2023/08/14 09:57:27;;;;;;;12.60;4.05;;;;;;;;;;5052790;28;20025;-68
2023/08/14 09:59:53;;;;;;;15.05;3.33;;;;;;;;;;5051693;28;20025;-69
2023/08/14 10:02:22;;;;;;;14.32;4.03;;;;;;;;;;5034253;28;20485;-70
2023/08/14 10:04:48;;;;;;;11.93;3.38;;;;;;;;;;5052319;28;20545;-69
2023/08/14 10:07:15;;;;;;;14.13;4.10;;;;;;;;;;5052044;28;20387;-68
2023/08/14 10:09:44;;;;;;;11.07;3.70;;;;;;;;;;5052186;28;20074;-69
2023/08/14 10:12:12;;;;;;;10.85;3.45;;;;;;;;;;5051561;28;20459;-68
2023/08/14 10:14:38;;;;;;;10.43;3.38;;;;;;;;;;5052172;28;20047;-69
2023/08/14 10:17:06;;;;;;;14.68;3.90;;;;;;;;;;5051607;28;20029;-69
2023/08/14 10:19:32;;;;;;;10.23;3.63;;;;;;;;;;5051717;28;20025;-68
2023/08/14 10:21:59;;;;;;;11.45;3.38;;;;;;;;;;5051492;28;20029;-69
2023/08/14 10:24:27;;;;;;;9.95;2.80;;;;;;;;;;5051764;28;20495;-69
2023/08/14 10:26:54;;;;;;;9.73;2.95;;;;;;;;;;5051366;28;20029;-69
2023/08/14 10:29:20;;;;;;;11.77;3.10;;;;;;;;;;5049872;28;20040;-68
2023/08/14 10:31:47;;;;;;;8.40;2.13;;;;;;;;;;5050299;28;20040;-69
2023/08/14 10:34:14;;;;;;;15.90;3.40;;;;;;;;;;5031907;28;20032;-68
2023/08/14 10:36:41;;;;;;;11.98;3.28;;;;;;;;;;5049911;28;20096;-69
2023/08/14 10:39:12;;;;;;;11.77;2.80;;;;;;;;;;5050253;28;20029;-68
2023/08/14 10:41:38;;;;;;;11.32;2.88;;;;;;;;;;5050216;28;20029;-68
2023/08/14 10:44:06;;;;;;;9.63;2.78;;;;;;;;;;5049370;28;20059;-69
2023/08/14 10:46:34;;;;;;;9.48;2.80;;;;;;;;;;5049574;28;20441;-69
2023/08/14 10:49:00;;;;;;;10.27;2.90;;;;;;;;;;5048929;28;20021;-66
2023/08/14 10:51:30;;;;;;;6.80;2.13;;;;;;;;;;5049232;28;20025;-67
2023/08/14 10:54:12;;;;;;;6.82;2.65;;;;;;;;;;5049054;28;20441;-67
2023/08/14 10:56:42;;;;;;;8.65;2.30;;;;;;;;;;5049008;28;20024;-66
2023/08/14 10:59:19;;;;;;;8.80;2.67;;;;;;;;;;5048820;28;20475;-66
2023/08/14 11:01:49;;;;;;;7.78;2.65;;;;;;;;;;5050329;28;20529;-67
2023/08/14 11:04:15;;;;;;;;;;;;;;;;;;5050356;28;20037;-67
2023/08/14 11:07:00;;;;;;;6.93;2.38;;;;;;;;;;5050767;28;19958;-66
2023/08/14 11:09:31;;;;;;;6.65;2.33;;;;;;;;;;5050719;28;20025;-69
2023/08/14 11:12:01;;;;;;;6.40;2.20;;;;;;;;;;5050524;28;20025;-69
2023/08/14 11:14:27;;;;;;;9.35;2.80;;;;;;;;;;5050226;28;20029;-69
2023/08/14 11:16:53;;;;;;;7.80;2.15;;;;;;;;;;5050341;28;20032;-67
2023/08/14 11:19:19;;;;;;;5.50;2.10;;;;;;;;;;5050546;28;20094;-67
2023/08/14 11:21:53;;;;;;;7.97;2.05;;;;;;;;;;5050640;28;20025;-67
2023/08/14 11:24:19;;;;;;;8.68;2.85;;;;;;;;;;5050382;28;20128;-67
2023/08/14 11:26:45;;;;;;;7.95;3.28;;;;;;;;;;5050191;28;20025;-67
2023/08/14 11:29:12;;;;;;;9.25;3.15;;;;;;;;;;5032704;28;20032;-67
2023/08/14 11:31:38;;;;;;;11.48;4.70;;;;;;;;;;5050175;28;20100;-69
2023/08/14 11:34:05;;;;;;;11.55;4.28;;;;;;;;;;5050484;28;20102;-69
2023/08/14 11:36:32;;;;;;;13.13;4.75;;;;;;;;;;5050764;28;20036;-71
2023/08/14 11:38:58;;;;;;;13.93;5.00;;;;;;;;;;5049538;28;20044;-69
2023/08/14 11:41:24;;;;;;;16.30;5.47;;;;;;;;;;5050053;28;20391;-70
2023/08/14 11:43:50;;;;;;;12.98;5.28;;;;;;;;;;5050031;28;20053;-71
2023/08/14 11:46:16;;;;;;;11.35;4.60;;;;;;;;;;5049337;28;20040;-68
2023/08/14 11:48:42;;;;;;;16.25;5.97;;;;;;;;;;5050385;28;20032;-69
2023/08/14 11:51:08;;;;;;;12.25;5.55;;;;;;;;;;5050205;28;20071;-72
2023/08/14 11:53:34;;;;;;;11.40;4.47;;;;;;;;;;5050377;28;20044;-71
2023/08/14 11:56:00;;;;;;;12.40;4.55;;;;;;;;;;5049492;28;20064;-71
2023/08/14 11:58:28;;;;;;;10.48;4.22;;;;;;;;;;5049798;28;20435;-70
2023/08/14 12:00:54;;;;;;;15.43;5.68;;;;;;;;;;5049832;28;20033;-69
2023/08/14 12:03:20;;;;;;;8.30;4.15;;;;;;;;;;5049622;28;20112;-67
2023/08/14 12:05:47;;;;;;;12.10;4.63;;;;;;;;;;5049539;28;20021;-70
2023/08/14 12:08:13;;;;;;;11.60;4.45;;;;;;;;;;5049180;28;20483;-68
2023/08/14 12:10:42;;;;;;;14.65;4.43;;;;;;;;;;5049134;28;20059;-70
2023/08/14 12:13:08;;;;;;;13.67;4.17;;;;;;;;;;5049433;28;20028;-68
2023/08/14 12:15:34;;;;;;;13.73;4.55;;;;;;;;;;5049787;28;20029;-69
2023/08/14 12:18:00;;;;;;;12.90;4.57;;;;;;;;;;5049429;28;20355;-72
2023/08/14 12:20:31;;;;;;;13.90;4.80;;;;;;;;;;5050107;28;20029;-72
2023/08/14 12:23:11;;;;;;;11.13;3.42;;;;;;;;;;5049498;28;20044;-72
2023/08/14 12:25:38;;;;;;;8.40;3.58;;;;;;;;;;5049435;28;20025;-72
2023/08/14 12:28:05;;;;;;;11.80;3.78;;;;;;;;;;5049443;28;20719;-71
2023/08/14 12:30:32;;;;;;;9.63;3.63;;;;;;;;;;5048250;28;20359;-71
2023/08/14 12:32:58;;;;;;;10.90;3.40;;;;;;;;;;5048267;28;20033;-71
2023/08/14 12:35:24;;;;;;;11.85;3.65;;;;;;;;;;5049500;28;20079;-71
2023/08/14 12:37:50;;;;;;;9.88;3.65;;;;;;;;;;5049473;28;20029;-69
2023/08/14 12:40:16;;;;;;;7.82;2.88;;;;;;;;;;5048450;28;20036;-70
2023/08/14 12:42:42;;;;;;;9.50;3.00;;;;;;;;;;5049148;28;20064;-69
2023/08/14 12:45:09;;;;;;;12.13;3.15;;;;;;;;;;5048655;28;20021;-70
2023/08/14 12:47:35;;;;;;;10.90;3.85;;;;;;;;;;5046336;28;20037;-69
2023/08/14 12:50:01;;;;;;;7.93;3.10;;;;;;;;;;5047336;28;20024;-69
2023/08/14 12:52:27;;;;;;;7.90;2.67;;;;;;;;;;5047150;28;20036;-70
2023/08/14 12:54:53;;;;;;;6.95;2.63;;;;;;;;;;5046906;28;20031;-69
2023/08/14 12:57:19;;;;;;;8.13;2.80;;;;;;;;;;5029214;28;20387;-69
2023/08/14 12:59:45;;;;;;;7.88;3.03;;;;;;;;;;5046728;28;20025;-69
2023/08/14 13:02:11;;;;;;;5.68;2.58;;;;;;;;;;5046424;28;20021;-70
2023/08/14 13:04:37;;;;;;;8.93;3.03;;;;;;;;;;5047119;28;20025;-69
2023/08/14 13:07:03;;;;;;;5.00;1.98;;;;;;;;;;5048384;28;20479;-70
2023/08/14 13:09:31;;;;;;;7.50;2.72;;;;;;;;;;5048530;28;20116;-70
2023/08/14 13:11:57;;;;;;;7.15;2.58;;;;;;;;;;5048639;28;20781;-69
2023/08/14 13:14:23;;;;;;;8.55;2.97;;;;;;;;;;5048850;28;20483;-70
2023/08/14 13:16:49;;;;;;;9.40;2.50;;;;;;;;;;5048768;28;20100;-70
2023/08/14 13:19:15;;;;;;;5.53;2.45;;;;;;;;;;5050342;28;20112;-69
2023/08/14 13:21:41;;;;;;;7.13;2.38;;;;;;;;;;5052315;28;20092;-69
2023/08/14 13:24:07;;;;;;;8.30;2.72;;;;;;;;;;5052514;28;20535;-70
2023/08/14 13:26:33;;;;;;;6.07;2.70;;;;;;;;;;5052689;28;20023;-70
2023/08/14 13:28:59;;;;;;;6.85;2.08;;;;;;;;;;5052856;28;20044;-69
2023/08/14 13:31:27;;;;;;;9.00;2.60;;;;;;;;;;5052589;28;20029;-70
2023/08/14 13:33:53;;;;;;;7.53;2.80;;;;;;;;;;5052043;28;20052;-70
2023/08/14 13:36:19;;;;;;;6.13;2.55;;;;;;;;;;5052419;28;20055;-70
2023/08/14 13:38:46;;;;;;;6.57;2.13;;;;;;;;;;5052624;28;20537;-70
2023/08/14 13:41:12;;;;;;;5.32;1.63;;;;;;;;;;5052381;28;20098;-70
2023/08/14 13:43:38;;;;;;;8.02;2.13;;;;;;;;;;5052433;28;20053;-70
2023/08/14 13:46:04;;;;;;;5.68;2.03;;;;;;;;;;5051866;28;20087;-70
2023/08/14 13:48:30;;;;;;;6.68;2.50;;;;;;;;;;5052102;28;20390;-70
2023/08/14 13:50:56;;;;;;;7.75;2.33;;;;;;;;;;5052305;28;20087;-70
2023/08/14 13:53:23;;;;;;;5.45;1.80;;;;;;;;;;5051834;28;20021;-70
2023/08/14 13:55:49;;;;;;;4.95;1.80;;;;;;;;;;5052109;28;20044;-70
2023/08/14 13:58:15;;;;;;;5.93;2.33;;;;;;;;;;5051881;28;20029;-70
2023/08/14 14:00:41;;;;;;;4.55;1.65;;;;;;;;;;5052160;28;20037;-70
2023/08/14 14:03:07;;;;;;;5.65;2.08;;;;;;;;;;5051644;28;20442;-69
2023/08/14 14:05:33;;;;;;;6.80;1.80;;;;;;;;;;5051616;28;20056;-70
2023/08/14 14:08:00;;;;;;;4.93;1.60;;;;;;;;;;5051285;28;20394;-70
2023/08/14 14:10:26;;;;;;;5.25;1.88;;;;;;;;;;5051870;28;20032;-69
2023/08/14 14:12:53;;;;;;;4.85;1.63;;;;;;;;;;5051692;28;20025;-69
2023/08/14 14:15:19;;;;;;;4.07;1.42;;;;;;;;;;5051742;28;20075;-70
2023/08/14 14:17:45;;;;;;;4.90;1.80;;;;;;;;;;5051501;28;20032;-70
2023/08/14 14:20:11;;;;;;;5.07;1.70;;;;;;;;;;5050968;28;20025;-70
2023/08/14 14:22:37;;;;;;;7.40;1.88;;;;;;;;;;5051661;28;20457;-70
2023/08/14 14:25:04;;;;;;;4.22;1.90;;;;;;;;;;5051230;28;20029;-70
2023/08/14 14:27:30;;;;;;;3.67;1.70;;;;;;;;;;5051665;28;20029;-70
2023/08/14 14:29:56;;;;;;;4.47;1.83;;;;;;;;;;5051409;28;20545;-70
2023/08/14 14:32:22;;;;;;;4.28;1.42;;;;;;;;;;5050493;28;20025;-70
2023/08/14 14:34:48;;;;;;;4.00;1.20;;;;;;;;;;5051443;28;20032;-70